Time;durP1;ratioP1;P1;durP2;ratioP2;P2;SDS_P1;SDS_P2;PMS_P1;PMS_P2;Temp;Humidity;BMP_temperature;BMP_pressure;BME280_temperature;BME280_humidity;BME280_pressure;Samples;Min_cycle;Max_cycle;Signal;HPM_P1;HPM_P2
2023/07/28 10:24:14;;;;;;;;;;;;;;;23.47;61.12;99273.84;1090762;39;20721;-89
2023/07/28 10:25:22;;;;;;;;;;;;;;;23.44;61.29;99279.81;1086863;47;19950;-87
2023/07/28 10:26:37;;;;;;;;;;;;;;;23.29;61.75;99276.84;1087374;47;19939;-86
2023/07/28 10:27:39;;;;;;;;;;;;;;;23.18;62.48;99287.56;1087441;47;19939;-86
2023/07/28 10:28:43;;;;;;;;;;;;;;;23.16;62.67;99278.78;1087307;47;19990;-87
2023/07/28 10:29:55;;;;;;;;;;;;;;;23.33;62.14;99286.19;1087283;47;19966;-86
2023/07/28 10:30:59;;;;;;;;;;;;;;;23.33;62.49;99278.81;1087564;54;19942;-87
2023/07/28 10:32:00;;;;;;;;;;;;;;;23.31;62.78;99286.41;1087581;54;19969;-87
2023/07/28 10:33:02;;;;;;;;;;;;;;;23.21;63.03;99287.09;1087579;46;19949;-87
2023/07/28 10:34:06;;;;;;;;;;;;;;;23.24;63.07;99290.41;1087338;54;19990;-88
2023/07/28 10:35:07;;;;;;;;;;;;;;;23.22;62.50;99287.91;1087181;46;19938;-85
2023/07/28 10:36:15;;;;;;;;;;;;;;;23.27;62.05;99284.44;1087244;54;20649;-87
2023/07/28 10:37:16;;;;;;;;;;;;;;;23.30;62.18;99292.13;1087748;54;19994;-88
2023/07/28 10:38:36;;;;;;;;;;;;;;;23.40;61.92;99286.84;1087327;46;19938;-87
2023/07/28 10:39:41;;;;;;;;;;;;;;;23.23;62.29;99299.66;1088720;46;20375;-85
2023/07/28 10:40:44;;;;;;;;;;;;;;;23.39;62.28;99284.34;1087804;54;19942;-86
2023/07/28 10:42:00;;;;;;;;;;;;;;;23.41;62.04;99291.22;1088049;39;22145;-87
2023/07/28 10:43:04;;;;;;;;;;;;;;;23.40;62.24;99288.72;1087427;54;19983;-87
2023/07/28 10:44:07;;;;;;;;;;;;;;;23.45;61.91;99289.63;1087174;47;20019;-87
2023/07/28 10:45:12;;;;;;;;;;;;;;;23.48;61.89;99286.44;1086847;47;19939;-88
2023/07/28 10:47:17;;;;;;;;;;;;;;;23.30;62.28;99290.22;1087510;54;19937;-86
2023/07/28 10:49:29;;;;;;;;;;;;;;;23.24;62.67;99290.41;1087250;54;19943;-88
2023/07/28 10:50:31;;;;;;;;;;;;;;;23.24;62.79;99285.75;1087173;47;19939;-86
2023/07/28 10:51:38;;;;;;;;;;;;;;;23.33;62.69;99297.91;1087837;39;20654;-86
2023/07/28 10:52:39;;;;;;;;;;;;;;;23.36;62.15;99294.69;1087156;47;19954;-88
2023/07/28 10:53:42;;;;;;;;;;;;;;;23.32;62.45;99293.53;1087105;54;19954;-87
2023/07/28 10:54:46;;;;;;;;;;;;;;;23.26;62.28;99288.22;1087186;47;20865;-88
2023/07/28 10:55:47;;;;;;;;;;;;;;;23.26;62.15;99293.69;1087052;47;19967;-84
2023/07/28 10:56:50;;;;;;;;;;;;;;;23.40;61.95;99286.00;1088586;39;20997;-86
2023/07/28 10:57:52;;;;;;;;;;;;;;;23.57;61.22;99284.09;1087073;47;19943;-87
2023/07/28 10:58:58;;;;;;;;;;;;;;;23.77;61.03;99283.59;1087065;54;19938;-87
2023/07/28 11:00:00;;;;;;;;;;;;;;;23.72;60.87;99282.69;1087151;47;20943;-86
2023/07/28 11:01:03;;;;;;;;;;;;;;;23.78;60.91;99287.97;1086907;54;19942;-86
2023/07/28 11:02:04;;;;;;;;;;;;;;;23.98;60.38;99284.72;1091009;39;20943;-87
2023/07/28 11:03:07;;;;;;;;;;;;;;;23.89;60.26;99282.66;1087209;47;19963;-88
2023/07/28 11:04:09;;;;;;;;;;;;;;;23.89;60.00;99285.38;1086814;54;19942;-85
2023/07/28 11:05:14;;;;;;;;;;;;;;;23.93;59.92;99286.53;1087057;47;19939;-88
2023/07/28 11:06:15;;;;;;;;;;;;;;;24.00;59.50;99289.91;1086977;47;19964;-86
2023/07/28 11:07:19;;;;;;;;;;;;;;;23.99;59.42;99278.19;1087209;47;19964;-87
2023/07/28 11:08:19;;;;;;;;;;;;;;;23.94;59.26;99290.91;1087065;54;19954;-86
2023/07/28 11:09:24;;;;;;;;;;;;;;;23.89;59.42;99293.56;1087140;47;19946;-87
2023/07/28 11:10:29;;;;;;;;;;;;;;;23.74;59.48;99305.91;1087238;47;19947;-86
2023/07/28 11:12:35;;;;;;;;;;;;;;;23.46;60.47;99299.47;1087639;54;19935;-89
2023/07/28 11:13:37;;;;;;;;;;;;;;;23.39;60.53;99296.09;1086968;46;19962;-87
2023/07/28 11:14:41;;;;;;;;;;;;;;;23.43;60.31;99305.41;1087217;47;19943;-87
2023/07/28 11:15:42;;;;;;;;;;;;;;;23.45;60.71;99305.19;1087386;54;20316;-88
2023/07/28 11:16:44;;;;;;;;;;;;;;;23.45;60.67;99303.28;1087171;54;19966;-86
2023/07/28 11:17:49;;;;;;;;;;;;;;;23.32;60.73;99298.16;1087146;47;21230;-89
2023/07/28 11:18:50;;;;;;;;;;;;;;;23.32;61.09;99303.63;1087019;47;19945;-86
2023/07/28 11:19:55;;;;;;;;;;;;;;;23.40;60.92;99311.38;1087307;47;19952;-87
2023/07/28 11:20:56;;;;;;;;;;;;;;;23.18;61.68;99314.81;1087953;39;21139;-87
2023/07/28 11:23:05;;;;;;;;;;;;;;;23.12;62.42;99318.50;1087570;47;19943;-86
2023/07/28 11:24:07;;;;;;;;;;;;;;;22.92;62.77;99309.97;1087805;54;19973;-87
2023/07/28 11:25:09;;;;;;;;;;;;;;;22.99;62.74;99313.34;1087831;54;19973;-85
2023/07/28 11:26:17;;;;;;;;;;;;;;;22.95;62.75;99317.66;1087858;47;19939;-86
2023/07/28 11:27:17;;;;;;;;;;;;;;;23.02;62.43;99318.34;1087468;54;19973;-86
2023/07/28 11:28:22;;;;;;;;;;;;;;;23.07;62.71;99323.84;1087616;54;19942;-85
2023/07/28 11:29:23;;;;;;;;;;;;;;;22.90;62.92;99316.47;1087236;47;19939;-86
2023/07/28 12:51:19;;;;;;;;;;;;;;;22.32;65.24;99331.06;1069876;54;19946;31
2023/07/28 12:58:28;;;;;;;;;;;;;;;22.39;66.70;99323.59;1076215;54;19950;-84
2023/07/28 13:00:49;;;;;;;;;;;;;;;22.32;67.69;99331.06;1070607;54;20238;31
2023/07/28 13:03:08;;;;;;;;;;;;;;;22.23;68.26;99330.63;1089566;46;19963;-85
2023/07/28 13:04:12;;;;;;;;;;;;;;;22.29;68.06;99324.22;1088114;54;20238;-87
2023/07/28 13:05:19;;;;;;;;;;;;;;;22.25;68.66;99332.03;1087605;47;19939;-87
2023/07/28 13:06:22;;;;;;;;;;;;;;;22.22;68.92;99326.25;1087621;47;19980;-86
2023/07/28 13:07:26;;;;;;;;;;;;;;;22.24;68.82;99333.09;1087366;54;19951;-86
2023/07/28 13:08:28;;;;;;;;;;;;;;;22.24;69.20;99324.13;1087092;54;19950;-86
2023/07/28 13:09:29;;;;;;;;;;;;;;;22.32;69.26;99328.34;1087360;54;19942;-86
2023/07/28 13:10:35;;;;;;;;;;;;;;;22.33;69.70;99328.13;1086368;54;19947;-82
2023/07/28 13:11:36;;;;;;;;;;;;;;;22.39;69.61;99329.03;1085029;54;19954;-83
2023/07/28 13:12:40;;;;;;;;;;;;;;;22.38;69.68;99335.59;1086236;47;19957;-81
2023/07/28 13:13:41;;;;;;;;;;;;;;;22.36;70.11;99335.00;1084522;46;19952;-83
2023/07/28 13:14:42;;;;;;;;;;;;;;;22.31;69.95;99337.59;1086139;46;21513;-83
2023/07/28 13:15:46;;;;;;;;;;;;;;;22.31;70.38;99343.88;1086993;54;19975;-82
2023/07/28 13:16:47;;;;;;;;;;;;;;;22.18;71.31;99342.25;1086810;47;19938;-82
2023/07/28 13:17:50;;;;;;;;;;;;;;;22.08;71.73;99340.09;1087003;54;19942;-82
2023/07/28 13:18:52;;;;;;;;;;;;;;;22.17;71.73;99350.63;1086102;54;20046;-80
2023/07/28 13:19:53;;;;;;;;;;;;;;;22.08;72.06;99351.00;1086365;47;19943;-82
2023/07/28 13:20:57;;;;;;;;;;;;;;;21.90;72.73;99349.25;1087161;54;19950;-84
2023/07/28 13:22:01;;;;;;;;;;;;;;;21.77;73.92;99353.00;1086886;54;19942;-87
2023/07/28 13:23:05;;;;;;;;;;;;;;;21.75;74.44;99346.97;1087216;47;19942;-85
2023/07/28 13:24:06;;;;;;;;;;;;;;;21.68;74.69;99357.13;1087074;54;19943;-85
2023/07/28 13:25:10;;;;;;;;;;;;;;;21.61;75.10;99359.97;1089885;31;20725;-88
2023/07/28 13:26:11;;;;;;;;;;;;;;;21.60;74.44;99355.59;1087125;47;19973;-84
2023/07/28 13:27:14;;;;;;;;;;;;;;;21.62;74.84;99353.47;1087114;47;19950;-87
2023/07/28 13:28:15;;;;;;;;;;;;;;;21.53;74.87;99345.84;1087488;54;19943;-83
2023/07/28 13:29:19;;;;;;;;;;;;;;;21.49;74.36;99346.31;1087081;54;19942;-87
2023/07/28 13:30:20;;;;;;;;;;;;;;;21.44;74.26;99346.19;1087165;47;19950;-86
2023/07/28 13:40:19;;;;;;;;;;;;;;;21.14;74.76;99354.41;1089704;39;20579;-82
2023/07/28 13:41:20;;;;;;;;;;;;;;;21.15;75.20;99364.22;1087411;47;19938;-86
2023/07/28 13:42:24;;;;;;;;;;;;;;;21.17;75.18;99360.19;1087089;47;19938;-85
2023/07/28 13:43:25;;;;;;;;;;;;;;;21.12;75.48;99356.50;1087341;54;19967;-86
2023/07/28 13:44:28;;;;;;;;;;;;;;;21.16;75.52;99363.16;1087609;54;19966;-87
2023/07/28 13:45:29;;;;;;;;;;;;;;;21.17;75.68;99362.06;1087581;47;19954;-85
2023/07/28 13:46:33;;;;;;;;;;;;;;;21.08;76.11;99363.44;1087545;47;19942;-84
2023/07/28 13:47:34;;;;;;;;;;;;;;;20.99;76.87;99363.78;1087576;47;19968;-87
2023/07/28 13:48:39;;;;;;;;;;;;;;;21.02;77.24;99368.75;1087583;47;20561;-86
2023/07/28 13:49:40;;;;;;;;;;;;;;;20.94;77.19;99363.66;1087447;47;19942;-85
2023/07/28 13:50:43;;;;;;;;;;;;;;;20.98;77.18;99359.41;1087828;47;19927;-86
2023/07/28 13:51:44;;;;;;;;;;;;;;;21.06;77.28;99363.69;1088189;54;19968;-88
2023/07/28 13:52:48;;;;;;;;;;;;;;;21.14;77.21;99357.13;1088227;46;19943;-88
2023/07/28 13:54:53;;;;;;;;;;;;;;;21.21;76.82;99365.19;1088259;54;20766;-84
2023/07/28 13:55:58;;;;;;;;;;;;;;;21.04;77.24;99363.09;1087966;54;19950;-86
2023/07/28 13:57:02;;;;;;;;;;;;;;;21.11;77.52;99360.28;1088021;54;19942;-85
2023/07/28 13:58:02;;;;;;;;;;;;;;;21.01;78.05;99358.13;1087593;46;19994;-84
2023/07/28 13:59:06;;;;;;;;;;;;;;;20.99;77.96;99366.50;1087287;47;19946;-85
2023/07/28 14:00:08;;;;;;;;;;;;;;;21.06;77.44;99365.59;1087492;54;19938;-85
2023/07/28 14:01:12;;;;;;;;;;;;;;;20.94;78.39;99358.22;1087438;47;19946;-84
2023/07/28 14:02:15;;;;;;;;;;;;;;;20.90;78.55;99365.16;1087183;47;21217;-86
2023/07/28 14:03:19;;;;;;;;;;;;;;;20.82;79.23;99363.59;1087506;46;19946;-86
2023/07/28 14:04:20;;;;;;;;;;;;;;;20.83;79.57;99370.66;1087349;46;19939;-83
2023/07/28 14:05:23;;;;;;;;;;;;;;;20.89;79.64;99366.22;1087490;46;20030;-86
2023/07/28 14:06:27;;;;;;;;;;;;;;;20.84;79.57;99357.94;1087163;54;19943;-83
2023/07/28 14:07:30;;;;;;;;;;;;;;;20.82;79.73;99365.47;1086829;47;20867;-84
2023/07/28 14:08:31;;;;;;;;;;;;;;;20.72;80.09;99366.00;1086990;47;19945;-86
2023/07/28 14:09:36;;;;;;;;;;;;;;;20.73;80.50;99364.94;1086805;54;19943;-82
2023/07/28 14:10:38;;;;;;;;;;;;;;;20.73;80.72;99354.94;1087121;54;19942;-82
2023/07/28 14:11:46;;;;;;;;;;;;;;;20.73;81.21;99363.06;1087063;46;19991;-83
2023/07/28 14:12:47;;;;;;;;;;;;;;;20.81;80.78;99355.66;1087005;47;19943;-82
2023/07/28 14:13:51;;;;;;;;;;;;;;;20.71;80.91;99359.72;1087507;39;20700;-86
2023/07/28 14:14:52;;;;;;;;;;;;;;;20.75;80.97;99362.03;1086910;46;19938;-83
2023/07/28 14:15:56;;;;;;;;;;;;;;;20.75;81.03;99359.31;1086893;54;19947;-82
2023/07/28 14:16:58;;;;;;;;;;;;;;;20.73;81.42;99357.66;1086767;54;20091;-81
2023/07/28 14:17:59;;;;;;;;;;;;;;;20.74;81.52;99358.47;1086980;47;19943;-85
2023/07/28 14:19:05;;;;;;;;;;;;;;;20.80;81.44;99351.28;1086431;47;19934;-84
2023/07/28 14:20:09;;;;;;;;;;;;;;;20.83;80.91;99345.41;1086551;47;19969;-84
2023/07/28 14:21:14;;;;;;;;;;;;;;;20.85;80.81;99349.53;1086835;47;19945;-85
2023/07/28 14:22:16;;;;;;;;;;;;;;;20.91;80.78;99345.09;1087117;47;19987;-85
2023/07/28 14:23:26;;;;;;;;;;;;;;;20.92;80.45;99343.22;1087435;54;19942;-82
2023/07/28 14:24:29;;;;;;;;;;;;;;;20.95;81.08;99343.59;1086893;47;19939;-83
2023/07/28 14:25:32;;;;;;;;;;;;;;;20.92;81.13;99338.59;1086948;54;19949;-83
2023/07/28 14:26:35;;;;;;;;;;;;;;;20.85;81.45;99338.69;1086862;54;19939;-84
2023/07/28 14:27:39;;;;;;;;;;;;;;;20.84;81.17;99336.22;1086879;54;19951;-83
2023/07/28 14:28:42;;;;;;;;;;;;;;;20.80;80.83;99333.13;1086727;54;19953;-81
2023/07/28 14:29:43;;;;;;;;;;;;;;;20.84;81.20;99330.78;1086786;54;19946;-81
2023/07/28 14:30:47;;;;;;;;;;;;;;;20.84;80.86;99330.78;1087224;39;20706;-82
2023/07/28 14:31:48;;;;;;;;;;;;;;;20.86;80.70;99331.38;1086770;47;19939;-82
2023/07/28 14:32:52;;;;;;;;;;;;;;;20.76;82.33;99333.81;1086866;46;19978;-81
2023/07/28 14:33:53;;;;;;;;;;;;;;;20.81;81.85;99336.66;1086739;47;20883;-84
2023/07/28 14:34:56;;;;;;;;;;;;;;;20.82;81.57;99341.88;1086861;54;19970;-81
2023/07/28 14:35:57;;;;;;;;;;;;;;;20.80;82.43;99345.84;1086827;47;19950;-81
2023/07/28 14:37:03;;;;;;;;;;;;;;;20.75;82.36;99349.25;1086680;47;19965;-82
2023/07/28 14:38:05;;;;;;;;;;;;;;;20.79;82.13;99346.91;1086619;47;19954;-82
2023/07/28 14:39:09;;;;;;;;;;;;;;;20.79;81.99;99350.47;1086894;54;19939;-82
2023/07/28 14:40:11;;;;;;;;;;;;;;;20.79;83.14;99344.19;1086781;47;19939;-84
2023/07/28 14:41:21;;;;;;;;;;;;;;;20.72;83.63;99355.13;1087012;54;19977;-84
2023/07/28 14:42:22;;;;;;;;;;;;;;;20.81;83.00;99352.94;1086729;54;19949;-82
2023/07/28 14:43:28;;;;;;;;;;;;;;;20.71;83.92;99342.63;1086858;54;19973;-82
2023/07/28 14:44:29;;;;;;;;;;;;;;;20.70;83.85;99352.63;1086765;47;20040;-84
2023/07/28 14:45:32;;;;;;;;;;;;;;;20.72;84.04;99349.72;1086904;47;19948;-82
2023/07/28 14:46:33;;;;;;;;;;;;;;;20.64;84.94;99363.59;1086925;47;19942;-84
2023/07/28 14:47:34;;;;;;;;;;;;;;;20.64;84.63;99367.13;1087162;47;19969;-85
2023/07/28 14:48:37;;;;;;;;;;;;;;;20.68;84.71;99370.22;1087388;47;20033;-83
2023/07/28 14:49:38;;;;;;;;;;;;;;;20.70;84.37;99368.91;1086880;54;19973;-83
2023/07/28 14:50:41;;;;;;;;;;;;;;;20.66;84.53;99367.75;1086891;47;19943;-83
2023/07/28 14:51:42;;;;;;;;;;;;;;;20.67;84.72;99371.28;1086922;54;19946;-83
2023/07/28 14:52:46;;;;;;;;;;;;;;;20.73;84.59;99365.78;1086940;54;19943;-82
2023/07/28 14:53:47;;;;;;;;;;;;;;;20.82;83.88;99360.03;1086947;54;19977;-85
2023/07/28 14:56:06;;;;;;;;;;;;;;;20.75;84.53;99357.41;1086984;54;19942;-85
2023/07/28 14:57:13;;;;;;;;;;;;;;;20.80;84.49;99352.13;1087055;54;19946;-85
2023/07/28 14:58:17;;;;;;;;;;;;;;;20.82;84.37;99347.31;1086847;54;19943;-84
2023/07/28 14:59:21;;;;;;;;;;;;;;;20.75;84.66;99348.44;1086803;47;19977;-83
2023/07/28 15:00:25;;;;;;;;;;;;;;;20.79;84.11;99344.19;1086842;47;19942;-85
2023/07/28 15:01:25;;;;;;;;;;;;;;;20.78;83.88;99342.56;1086974;54;19975;-84
2023/07/28 15:02:36;;;;;;;;;;;;;;;20.85;83.97;99338.69;1086858;47;19958;-85
2023/07/28 15:03:37;;;;;;;;;;;;;;;20.82;83.66;99344.59;1086906;54;19950;-83
2023/07/28 15:04:41;;;;;;;;;;;;;;;20.90;83.32;99346.13;1087073;54;19949;-84
2023/07/28 15:05:42;;;;;;;;;;;;;;;20.85;84.18;99348.72;1087368;47;19942;-85
2023/07/28 15:06:45;;;;;;;;;;;;;;;20.79;84.38;99349.63;1087145;47;19943;-84
2023/07/28 15:07:46;;;;;;;;;;;;;;;20.84;84.25;99347.88;1087011;54;20048;-86
2023/07/28 15:08:49;;;;;;;;;;;;;;;20.84;84.32;99350.59;1087049;47;19968;-85
2023/07/28 15:09:50;;;;;;;;;;;;;;;20.87;84.40;99352.06;1086806;47;19943;-85
2023/07/28 15:10:53;;;;;;;;;;;;;;;20.94;83.66;99351.94;1087029;54;19954;-86
2023/07/28 15:11:54;;;;;;;;;;;;;;;20.90;83.80;99351.56;1087504;47;19966;-87
2023/07/28 15:12:55;;;;;;;;;;;;;;;20.97;83.80;99355.03;1087519;47;19943;-87
2023/07/28 15:13:59;;;;;;;;;;;;;;;21.02;83.10;99354.31;1087315;54;19943;-87
2023/07/28 15:15:03;;;;;;;;;;;;;;;21.04;83.69;99352.22;1087367;47;19945;-86
2023/07/28 15:16:08;;;;;;;;;;;;;;;21.03;84.05;99356.84;1087643;54;19950;-87
2023/07/28 15:17:11;;;;;;;;;;;;;;;21.08;83.40;99358.00;1087808;54;19969;-85
2023/07/28 15:18:21;;;;;;;;;;;;;;;21.01;83.73;99361.66;1087747;47;19965;-87
2023/07/28 15:19:27;;;;;;;;;;;;;;;21.06;83.01;99355.53;1087902;47;19967;-90
2023/07/28 15:20:30;;;;;;;;;;;;;;;21.00;83.30;99353.75;1086614;47;20020;-86
2023/07/28 15:21:31;;;;;;;;;;;;;;;21.00;83.25;99360.00;1089132;39;20694;-89
2023/07/28 15:22:35;;;;;;;;;;;;;;;21.08;83.14;99355.31;1087252;47;19943;-86
2023/07/28 15:23:41;;;;;;;;;;;;;;;21.00;83.33;99357.28;1087482;54;19943;-85
2023/07/28 16:03:53;;;;;;;;;;;;;;;20.71;85.92;99370.59;1084057;54;19923;-87
2023/07/28 17:08:51;;;;;;;;;;;;;;;20.38;90.31;99363.69;1087289;54;19943;-85
2023/07/28 17:09:54;;;;;;;;;;;;;;;20.39;90.84;99359.06;1086910;46;19938;-85
2023/07/28 17:10:58;;;;;;;;;;;;;;;20.40;90.45;99360.72;1087324;47;19964;-85
2023/07/28 17:11:59;;;;;;;;;;;;;;;20.40;90.47;99375.13;1087102;47;19950;-84
2023/07/28 17:13:04;;;;;;;;;;;;;;;20.46;90.34;99369.84;1086941;47;20852;-85
2023/07/28 17:14:05;;;;;;;;;;;;;;;20.50;90.03;99368.34;1087098;46;19963;-84
2023/07/28 17:15:10;;;;;;;;;;;;;;;20.50;90.04;99373.78;1087257;54;20781;-85
2023/07/28 17:16:29;;;;;;;;;;;;;;;20.49;90.25;99372.94;1087399;54;19949;-85
2023/07/28 17:17:39;;;;;;;;;;;;;;;20.47;91.06;99382.38;1087789;47;19949;-86
2023/07/28 17:18:40;;;;;;;;;;;;;;;20.41;90.79;99371.34;1087699;54;19950;-85
2023/07/28 17:19:44;;;;;;;;;;;;;;;20.29;89.47;99378.59;1087339;47;20251;-88
2023/07/28 17:20:46;;;;;;;;;;;;;;;20.31;89.24;99375.66;1087956;47;19954;-88
2023/07/28 17:21:49;;;;;;;;;;;;;;;20.39;89.35;99373.47;1087714;47;19998;-87
2023/07/28 17:22:51;;;;;;;;;;;;;;;20.28;89.64;99376.94;1087522;54;19942;-86
2023/07/28 17:23:57;;;;;;;;;;;;;;;20.29;89.03;99378.59;1087862;54;19949;-87
2023/07/28 17:24:58;;;;;;;;;;;;;;;20.26;88.86;99387.19;1088074;46;19943;-87
2023/07/28 17:26:02;;;;;;;;;;;;;;;20.22;89.00;99375.09;1087709;54;19950;-87
2023/07/28 17:27:04;;;;;;;;;;;;;;;20.21;88.63;99370.75;1088060;47;19966;-85
2023/07/28 17:28:08;;;;;;;;;;;;;;;20.18;88.68;99376.63;1088101;54;20006;-85
2023/07/28 17:29:09;;;;;;;;;;;;;;;20.11;88.15;99373.97;1087596;47;20015;-87
2023/07/28 17:30:13;;;;;;;;;;;;;;;20.10;88.66;99370.44;1087691;54;19978;-86
2023/07/28 17:31:14;;;;;;;;;;;;;;;20.07;88.43;99375.50;1089067;46;20047;-87
2023/07/28 17:32:19;;;;;;;;;;;;;;;20.02;88.89;99372.59;1087774;47;19943;-87
2023/07/28 17:33:20;;;;;;;;;;;;;;;20.09;88.74;99371.50;1087549;47;19943;-86
2023/07/28 17:34:23;;;;;;;;;;;;;;;20.12;88.25;99378.34;1087717;47;20002;-84
2023/07/28 17:35:24;;;;;;;;;;;;;;;20.14;88.54;99369.97;1087972;47;19927;-86
2023/07/28 17:36:28;;;;;;;;;;;;;;;20.16;89.58;99371.44;1087888;47;20022;-85
2023/07/28 17:37:28;;;;;;;;;;;;;;;20.12;89.61;99374.81;1087575;47;19996;-84
2023/07/28 17:38:33;;;;;;;;;;;;;;;20.07;90.34;99370.06;1087303;54;19951;-84
2023/07/28 17:39:37;;;;;;;;;;;;;;;20.11;90.21;99371.25;1087330;54;19969;-83
2023/07/28 17:40:42;;;;;;;;;;;;;;;20.21;89.32;99373.47;1087367;54;19955;-83
2023/07/28 17:41:44;;;;;;;;;;;;;;;20.24;89.61;99370.28;1087272;54;19942;-84
2023/07/28 17:42:47;;;;;;;;;;;;;;;20.20;90.24;99375.34;1087123;54;19966;-84
2023/07/28 17:43:48;;;;;;;;;;;;;;;20.28;89.95;99371.50;1087171;47;20066;-83
2023/07/28 17:44:51;;;;;;;;;;;;;;;20.30;89.91;99368.56;1087066;54;19955;-82
2023/07/28 17:45:52;;;;;;;;;;;;;;;20.33;89.87;99360.78;1087199;54;19946;-83
2023/07/28 17:46:56;;;;;;;;;;;;;;;20.33;90.37;99371.66;1087296;54;19943;-84
2023/07/28 17:47:57;;;;;;;;;;;;;;;20.34;90.24;99362.47;1087629;54;19943;-82
2023/07/28 17:49:00;;;;;;;;;;;;;;;20.31;90.72;99376.47;1087420;54;19968;-84
2023/07/28 17:50:01;;;;;;;;;;;;;;;20.28;90.61;99355.22;1087822;47;19951;-83
2023/07/28 17:51:05;;;;;;;;;;;;;;;20.23;90.79;99368.63;1087275;54;19942;-83
2023/07/28 17:52:06;;;;;;;;;;;;;;;20.23;90.83;99363.19;1087768;54;19958;-82
2023/07/28 17:53:10;;;;;;;;;;;;;;;20.28;90.48;99368.78;1087695;54;19943;-86
2023/07/28 17:54:11;;;;;;;;;;;;;;;20.30;90.58;99368.56;1087861;54;19951;-85
2023/07/28 17:55:17;;;;;;;;;;;;;;;20.24;90.69;99373.84;1087577;46;19938;-83
2023/07/28 17:56:18;;;;;;;;;;;;;;;20.25;91.19;99371.94;1087241;54;20010;-83
2023/07/28 17:57:23;;;;;;;;;;;;;;;20.25;91.02;99372.78;1087482;47;19923;-83
2023/07/28 17:58:24;;;;;;;;;;;;;;;20.31;90.43;99371.03;1088014;47;19939;-84
2023/07/28 17:59:28;;;;;;;;;;;;;;;20.30;91.21;99377.56;1087577;54;19990;-84
2023/07/28 18:00:28;;;;;;;;;;;;;;;20.32;90.82;99370.00;1092851;39;20223;-85
2023/07/28 18:01:32;;;;;;;;;;;;;;;20.37;90.78;99369.31;1087622;47;19954;-85
2023/07/28 18:02:35;;;;;;;;;;;;;;;20.30;91.01;99374.84;1087629;54;19955;-84
2023/07/28 18:03:39;;;;;;;;;;;;;;;20.34;90.83;99365.16;1087148;47;19969;-83
2023/07/28 18:04:40;;;;;;;;;;;;;;;20.38;91.57;99368.25;1087104;54;19947;-83
2023/07/28 18:05:43;;;;;;;;;;;;;;;20.39;90.89;99361.78;1087394;54;19949;-83
2023/07/28 18:06:44;;;;;;;;;;;;;;;20.44;90.66;99375.53;1087446;54;19954;-84
2023/07/28 18:07:51;;;;;;;;;;;;;;;20.49;90.26;99355.84;1088146;54;19995;-85
2023/07/28 18:08:53;;;;;;;;;;;;;;;20.44;89.66;99359.22;1087775;46;19943;-85
2023/07/28 18:09:56;;;;;;;;;;;;;;;20.45;89.32;99360.03;1087804;51;19942;-84
2023/07/28 18:11:00;;;;;;;;;;;;;;;20.41;89.32;99357.78;1087561;54;19954;-83
2023/07/28 18:12:04;;;;;;;;;;;;;;;20.44;89.63;99363.81;1088016;47;19930;-84
2023/07/28 18:13:07;;;;;;;;;;;;;;;20.37;89.68;99363.88;1088162;54;19927;-85
2023/07/28 18:14:13;;;;;;;;;;;;;;;20.33;90.10;99360.78;1088042;54;19954;-84
2023/07/28 18:15:16;;;;;;;;;;;;;;;20.34;90.01;99353.50;1092189;39;20112;-85
2023/07/28 18:16:24;;;;;;;;;;;;;;;20.32;90.84;99358.31;1092034;39;20622;-84
2023/07/28 18:17:28;;;;;;;;;;;;;;;20.28;90.86;99349.81;1087528;47;20732;-83
2023/07/28 18:18:33;;;;;;;;;;;;;;;20.23;90.83;99352.34;1087859;54;19926;-85
2023/07/28 18:19:36;;;;;;;;;;;;;;;20.26;90.69;99352.72;1087931;47;19951;-84
2023/07/28 18:21:03;;;;;;;;;;;;;;;20.23;91.16;99355.06;1087779;54;19942;-84
2023/07/28 18:22:07;;;;;;;;;;;;;;;20.25;90.54;99355.66;1087493;47;20011;-86
2023/07/28 18:23:15;;;;;;;;;;;;;;;20.20;91.02;99363.66;1087530;54;19942;-82
2023/07/28 18:24:20;;;;;;;;;;;;;;;20.18;91.27;99361.16;1087533;54;19946;-84
2023/07/28 18:25:28;;;;;;;;;;;;;;;20.19;91.29;99362.81;1088248;47;19954;-82
2023/07/28 18:26:38;;;;;;;;;;;;;;;20.20;91.70;99363.66;1086071;47;20030;-83
2023/07/28 18:27:45;;;;;;;;;;;;;;;20.18;91.54;99360.34;1086759;47;20458;-83
2023/07/28 18:28:51;;;;;;;;;;;;;;;20.16;91.85;99360.56;1087108;54;20489;-83
2023/07/28 18:29:58;;;;;;;;;;;;;;;20.15;91.96;99374.34;1087221;54;19943;-82
2023/07/28 18:31:04;;;;;;;;;;;;;;;20.10;92.57;99380.44;1087119;47;19943;-83
2023/07/28 18:32:15;;;;;;;;;;;;;;;20.12;92.75;99369.38;1087484;47;20006;-85
2023/07/28 18:33:23;;;;;;;;;;;;;;;20.16;92.13;99373.28;1096090;39;20454;-84
2023/07/28 18:34:33;;;;;;;;;;;;;;;20.11;92.85;99371.25;1086870;54;19942;-84
2023/07/28 18:35:40;;;;;;;;;;;;;;;20.15;92.62;99372.47;1087495;47;19949;-84
2023/07/28 18:36:52;;;;;;;;;;;;;;;20.17;92.52;99374.97;1089524;39;20237;-84
2023/07/28 18:37:55;;;;;;;;;;;;;;;20.17;92.63;99367.63;1088092;47;19942;-85
2023/07/28 18:39:03;;;;;;;;;;;;;;;20.19;92.27;99367.44;1087887;54;19965;-81
2023/07/28 18:40:04;;;;;;;;;;;;;;;20.23;92.01;99374.06;1087846;54;19995;-83
2023/07/28 18:42:47;;;;;;;;;;;;;;;20.32;91.59;99366.47;1088214;54;19967;-83
2023/07/28 18:43:48;;;;;;;;;;;;;;;20.31;91.18;99376.47;1087812;47;19954;-86
2023/07/28 18:44:51;;;;;;;;;;;;;;;20.26;91.11;99369.00;1087491;47;19975;-81
2023/07/28 18:45:59;;;;;;;;;;;;;;;20.30;91.47;99372.13;1087221;54;19942;-81
2023/07/28 18:47:04;;;;;;;;;;;;;;;20.26;90.91;99373.63;1087617;54;19950;-81
2023/07/28 18:48:05;;;;;;;;;;;;;;;20.28;90.85;99374.22;1086331;47;19958;-83
2023/07/28 18:49:08;;;;;;;;;;;;;;;20.33;90.93;99368.94;1086261;47;19930;-83
2023/07/28 18:50:09;;;;;;;;;;;;;;;20.36;90.49;99381.22;1087410;39;20275;-83
2023/07/28 18:51:13;;;;;;;;;;;;;;;20.37;90.43;99382.88;1087802;54;19943;-84
2023/07/28 18:52:13;;;;;;;;;;;;;;;20.39;90.42;99387.06;1087177;47;20042;-82
2023/07/28 18:53:17;;;;;;;;;;;;;;;20.39;90.19;99384.34;1086071;51;19946;-83
2023/07/28 18:54:20;;;;;;;;;;;;;;;20.41;90.01;99389.53;1086319;54;19951;-82
2023/07/28 18:55:23;;;;;;;;;;;;;;;20.42;90.27;99385.75;1086666;47;19943;-82
2023/07/28 18:56:24;;;;;;;;;;;;;;;20.39;90.33;99388.91;1086567;54;19971;-82
2023/07/28 18:57:28;;;;;;;;;;;;;;;20.37;90.23;99391.88;1087246;54;19950;-83
2023/07/28 18:58:31;;;;;;;;;;;;;;;20.37;90.11;99391.88;1087319;54;19950;-84
2023/07/28 18:59:34;;;;;;;;;;;;;;;20.37;90.08;99399.16;1087010;47;19942;-84
2023/07/28 19:00:35;;;;;;;;;;;;;;;20.30;89.96;99401.97;1087685;39;20249;-83
2023/07/28 19:01:39;;;;;;;;;;;;;;;20.26;90.13;99395.31;1087175;47;19958;-82
2023/07/28 19:02:40;;;;;;;;;;;;;;;20.21;90.49;99400.59;1087155;54;19950;-83
2023/07/28 19:03:43;;;;;;;;;;;;;;;20.23;90.45;99396.59;1089042;39;20303;-84
2023/07/28 19:04:45;;;;;;;;;;;;;;;20.25;90.18;99407.22;1086923;54;19984;-81
2023/07/28 19:05:48;;;;;;;;;;;;;;;20.22;90.30;99405.78;1087436;54;19943;-83
2023/07/28 19:06:49;;;;;;;;;;;;;;;20.20;90.55;99416.03;1087030;54;19999;-83
2023/07/28 19:07:52;;;;;;;;;;;;;;;20.16;90.66;99411.28;1087171;47;19943;-86
2023/07/28 19:08:54;;;;;;;;;;;;;;;20.15;90.52;99412.34;1087085;54;19943;-85
2023/07/28 19:09:58;;;;;;;;;;;;;;;20.18;90.90;99409.19;1086871;54;19946;-84
2023/07/28 19:10:58;;;;;;;;;;;;;;;20.20;90.14;99407.91;1087396;54;19943;-87
2023/07/28 19:13:03;;;;;;;;;;;;;;;20.20;90.12;99412.50;1086957;54;19961;-83
2023/07/28 19:14:07;;;;;;;;;;;;;;;20.18;89.94;99415.44;1087406;54;19943;-83
2023/07/28 19:15:11;;;;;;;;;;;;;;;20.21;89.68;99408.75;1086701;47;19938;-83
2023/07/28 19:16:11;;;;;;;;;;;;;;;20.25;89.39;99407.22;1087011;47;19939;-83
2023/07/28 19:17:16;;;;;;;;;;;;;;;20.27;90.30;99407.84;1086904;47;19938;-84
2023/07/28 19:18:17;;;;;;;;;;;;;;;20.19;91.93;99406.22;1086868;47;19964;-86
2023/07/28 19:19:21;;;;;;;;;;;;;;;20.17;91.76;99402.91;1086960;47;19975;-84
2023/07/28 19:20:21;;;;;;;;;;;;;;;20.16;91.50;99398.56;1087115;54;19966;-83
2023/07/28 19:21:25;;;;;;;;;;;;;;;20.16;91.04;99400.44;1087030;54;19967;-82
2023/07/28 19:22:25;;;;;;;;;;;;;;;20.20;91.21;99412.50;1087115;47;19950;-83
2023/07/28 19:23:29;;;;;;;;;;;;;;;20.22;91.29;99416.66;1087107;54;19942;-85
2023/07/28 19:24:29;;;;;;;;;;;;;;;20.25;90.77;99404.50;1087282;54;20779;-82
2023/07/28 19:25:33;;;;;;;;;;;;;;;20.27;90.88;99413.25;1087327;54;19967;-84